sensor_id;sensor_type;location;lat;lon;timestamp;temperature;humidity
22629;DHT22;11481;53.694;9.910;2022-07-01T00:00:58;24.20;99.90
22629;DHT22;11481;53.694;9.910;2022-07-01T00:03:25;24.40;99.90
22629;DHT22;11481;53.694;9.910;2022-07-01T00:05:52;24.60;99.90
22629;DHT22;11481;53.694;9.910;2022-07-01T00:08:18;24.80;99.90
22629;DHT22;11481;53.694;9.910;2022-07-01T00:10:45;24.80;99.90
22629;DHT22;11481;53.694;9.910;2022-07-01T00:13:12;24.60;99.90
22629;DHT22;11481;53.694;9.910;2022-07-01T00:15:39;24.10;99.90
22629;DHT22;11481;53.694;9.910;2022-07-01T00:18:06;23.80;99.90
22629;DHT22;11481;53.694;9.910;2022-07-01T00:20:32;23.60;99.90
22629;DHT22;11481;53.694;9.910;2022-07-01T00:23:00;23.50;99.90
22629;DHT22;11481;53.694;9.910;2022-07-01T00:25:26;23.70;99.90
22629;DHT22;11481;53.694;9.910;2022-07-01T00:27:53;23.60;99.90
22629;DHT22;11481;53.694;9.910;2022-07-01T00:30:20;23.70;99.90
22629;DHT22;11481;53.694;9.910;2022-07-01T00:32:47;23.80;99.90
22629;DHT22;11481;53.694;9.910;2022-07-01T00:35:14;24.00;99.90
22629;DHT22;11481;53.694;9.910;2022-07-01T00:37:41;24.00;99.90
22629;DHT22;11481;53.694;9.910;2022-07-01T00:40:08;24.10;99.90
22629;DHT22;11481;53.694;9.910;2022-07-01T00:42:38;24.10;99.90
22629;DHT22;11481;53.694;9.910;2022-07-01T00:45:07;24.20;99.90
22629;DHT22;11481;53.694;9.910;2022-07-01T00:47:35;24.30;99.90
22629;DHT22;11481;53.694;9.910;2022-07-01T00:50:05;24.40;99.90
22629;DHT22;11481;53.694;9.910;2022-07-01T00:52:33;24.60;99.90
22629;DHT22;11481;53.694;9.910;2022-07-01T00:55:03;24.60;99.90
22629;DHT22;11481;53.694;9.910;2022-07-01T00:57:31;24.60;99.90
22629;DHT22;11481;53.694;9.910;2022-07-01T00:59:58;24.40;99.90
22629;DHT22;11481;53.694;9.910;2022-07-01T01:02:25;24.20;99.90
22629;DHT22;11481;53.694;9.910;2022-07-01T01:04:52;24.10;99.90
22629;DHT22;11481;53.694;9.910;2022-07-01T01:07:19;24.20;99.90
22629;DHT22;11481;53.694;9.910;2022-07-01T01:09:47;24.10;99.90
22629;DHT22;11481;53.694;9.910;2022-07-01T01:12:14;24.10;99.90
22629;DHT22;11481;53.694;9.910;2022-07-01T01:14:48;24.10;99.90
22629;DHT22;11481;53.694;9.910;2022-07-01T01:17:17;24.20;99.90
22629;DHT22;11481;53.694;9.910;2022-07-01T01:19:44;24.20;99.90
22629;DHT22;11481;53.694;9.910;2022-07-01T01:22:14;24.10;99.90
22629;DHT22;11481;53.694;9.910;2022-07-01T01:24:42;24.00;99.90
22629;DHT22;11481;53.694;9.910;2022-07-01T01:27:10;23.90;99.90
22629;DHT22;11481;53.694;9.910;2022-07-01T01:29:38;23.80;99.90
22629;DHT22;11481;53.694;9.910;2022-07-01T01:32:06;23.70;99.90
22629;DHT22;11481;53.694;9.910;2022-07-01T01:34:34;23.70;99.90
22629;DHT22;11481;53.694;9.910;2022-07-01T01:37:05;23.70;99.90
22629;DHT22;11481;53.694;9.910;2022-07-01T01:39:32;23.50;99.90
22629;DHT22;11481;53.694;9.910;2022-07-01T01:41:59;23.30;99.90
22629;DHT22;11481;53.694;9.910;2022-07-01T01:44:26;23.00;99.90
22629;DHT22;11481;53.694;9.910;2022-07-01T01:46:53;22.50;99.90
22629;DHT22;11481;53.694;9.910;2022-07-01T01:49:20;22.30;99.90
22629;DHT22;11481;53.694;9.910;2022-07-01T01:51:46;22.40;99.90
22629;DHT22;11481;53.694;9.910;2022-07-01T01:54:13;22.30;99.90
22629;DHT22;11481;53.694;9.910;2022-07-01T01:56:40;21.80;99.90
22629;DHT22;11481;53.694;9.910;2022-07-01T01:59:06;21.80;99.90
22629;DHT22;11481;53.694;9.910;2022-07-01T02:01:33;21.80;99.90
22629;DHT22;11481;53.694;9.910;2022-07-01T02:04:00;21.80;99.90
22629;DHT22;11481;53.694;9.910;2022-07-01T02:06:27;21.70;99.90
22629;DHT22;11481;53.694;9.910;2022-07-01T02:08:53;21.30;99.90
22629;DHT22;11481;53.694;9.910;2022-07-01T02:11:20;21.10;99.90
22629;DHT22;11481;53.694;9.910;2022-07-01T02:13:46;20.90;99.90
22629;DHT22;11481;53.694;9.910;2022-07-01T02:16:13;21.00;99.90
22629;DHT22;11481;53.694;9.910;2022-07-01T02:18:40;20.90;99.90
22629;DHT22;11481;53.694;9.910;2022-07-01T02:21:06;21.00;99.90
22629;DHT22;11481;53.694;9.910;2022-07-01T02:23:37;21.20;99.90
22629;DHT22;11481;53.694;9.910;2022-07-01T02:26:03;21.10;99.90
22629;DHT22;11481;53.694;9.910;2022-07-01T02:28:30;20.90;99.90
22629;DHT22;11481;53.694;9.910;2022-07-01T02:30:57;21.00;99.90
22629;DHT22;11481;53.694;9.910;2022-07-01T02:33:23;21.20;99.90
22629;DHT22;11481;53.694;9.910;2022-07-01T02:35:50;21.30;99.90
22629;DHT22;11481;53.694;9.910;2022-07-01T02:38:17;21.20;99.90
22629;DHT22;11481;53.694;9.910;2022-07-01T02:40:43;21.30;99.90
22629;DHT22;11481;53.694;9.910;2022-07-01T02:43:10;21.50;99.90
22629;DHT22;11481;53.694;9.910;2022-07-01T02:45:37;21.60;99.90
22629;DHT22;11481;53.694;9.910;2022-07-01T02:48:04;21.70;99.90
22629;DHT22;11481;53.694;9.910;2022-07-01T02:50:31;21.80;99.90
22629;DHT22;11481;53.694;9.910;2022-07-01T02:52:58;21.90;99.90
22629;DHT22;11481;53.694;9.910;2022-07-01T02:55:25;22.00;99.90
22629;DHT22;11481;53.694;9.910;2022-07-01T02:57:51;22.10;99.90
22629;DHT22;11481;53.694;9.910;2022-07-01T03:00:20;22.20;99.90
22629;DHT22;11481;53.694;9.910;2022-07-01T03:02:47;22.30;99.90
22629;DHT22;11481;53.694;9.910;2022-07-01T03:05:14;22.30;99.90
22629;DHT22;11481;53.694;9.910;2022-07-01T03:07:41;22.30;99.90
22629;DHT22;11481;53.694;9.910;2022-07-01T03:10:09;22.30;99.90
22629;DHT22;11481;53.694;9.910;2022-07-01T03:12:36;22.40;99.90
22629;DHT22;11481;53.694;9.910;2022-07-01T03:17:39;22.40;99.90
22629;DHT22;11481;53.694;9.910;2022-07-01T03:20:09;22.40;99.90
22629;DHT22;11481;53.694;9.910;2022-07-01T03:22:36;22.40;99.90
22629;DHT22;11481;53.694;9.910;2022-07-01T03:25:04;22.40;99.90
22629;DHT22;11481;53.694;9.910;2022-07-01T03:27:32;22.30;99.90
22629;DHT22;11481;53.694;9.910;2022-07-01T03:30:00;22.20;99.90
22629;DHT22;11481;53.694;9.910;2022-07-01T03:32:26;22.00;99.90
22629;DHT22;11481;53.694;9.910;2022-07-01T03:34:53;21.80;99.90
22629;DHT22;11481;53.694;9.910;2022-07-01T03:37:21;21.30;99.90
22629;DHT22;11481;53.694;9.910;2022-07-01T03:39:49;21.00;99.90
22629;DHT22;11481;53.694;9.910;2022-07-01T03:42:16;20.90;99.90
22629;DHT22;11481;53.694;9.910;2022-07-01T03:44:44;20.70;99.90
22629;DHT22;11481;53.694;9.910;2022-07-01T03:47:11;20.50;99.90
22629;DHT22;11481;53.694;9.910;2022-07-01T03:49:38;20.40;99.90
22629;DHT22;11481;53.694;9.910;2022-07-01T03:52:05;20.20;99.90
22629;DHT22;11481;53.694;9.910;2022-07-01T03:54:32;20.20;99.90
22629;DHT22;11481;53.694;9.910;2022-07-01T03:57:10;20.20;99.90
22629;DHT22;11481;53.694;9.910;2022-07-01T03:59:38;19.90;99.90
22629;DHT22;11481;53.694;9.910;2022-07-01T04:02:05;19.90;99.90
22629;DHT22;11481;53.694;9.910;2022-07-01T04:04:33;19.90;99.90
22629;DHT22;11481;53.694;9.910;2022-07-01T04:07:01;19.90;99.90
22629;DHT22;11481;53.694;9.910;2022-07-01T04:09:29;19.90;99.90
22629;DHT22;11481;53.694;9.910;2022-07-01T04:11:56;19.70;99.90
22629;DHT22;11481;53.694;9.910;2022-07-01T04:14:23;19.60;99.90
22629;DHT22;11481;53.694;9.910;2022-07-01T04:16:50;19.70;99.90
22629;DHT22;11481;53.694;9.910;2022-07-01T04:19:19;19.60;99.90
22629;DHT22;11481;53.694;9.910;2022-07-01T04:21:45;19.70;99.90
22629;DHT22;11481;53.694;9.910;2022-07-01T04:24:30;19.60;99.90
22629;DHT22;11481;53.694;9.910;2022-07-01T04:26:59;19.70;99.90
22629;DHT22;11481;53.694;9.910;2022-07-01T04:29:27;19.50;99.90
22629;DHT22;11481;53.694;9.910;2022-07-01T04:31:56;19.30;99.90
22629;DHT22;11481;53.694;9.910;2022-07-01T04:34:24;19.20;99.90
22629;DHT22;11481;53.694;9.910;2022-07-01T04:36:51;19.00;99.90
22629;DHT22;11481;53.694;9.910;2022-07-01T04:39:18;19.00;99.90
22629;DHT22;11481;53.694;9.910;2022-07-01T04:41:45;19.00;99.90
22629;DHT22;11481;53.694;9.910;2022-07-01T04:46:54;19.10;99.90
22629;DHT22;11481;53.694;9.910;2022-07-01T04:49:21;19.10;99.90
22629;DHT22;11481;53.694;9.910;2022-07-01T04:51:47;19.00;99.90
22629;DHT22;11481;53.694;9.910;2022-07-01T04:54:14;18.90;99.90
22629;DHT22;11481;53.694;9.910;2022-07-01T04:56:41;18.70;99.90
22629;DHT22;11481;53.694;9.910;2022-07-01T04:59:13;18.70;99.90
22629;DHT22;11481;53.694;9.910;2022-07-01T05:01:43;18.60;99.90
22629;DHT22;11481;53.694;9.910;2022-07-01T05:04:11;18.50;99.90
22629;DHT22;11481;53.694;9.910;2022-07-01T05:06:38;18.40;99.90
22629;DHT22;11481;53.694;9.910;2022-07-01T05:09:05;18.30;99.90
22629;DHT22;11481;53.694;9.910;2022-07-01T05:11:32;18.30;99.90
22629;DHT22;11481;53.694;9.910;2022-07-01T05:13:59;18.20;99.90
22629;DHT22;11481;53.694;9.910;2022-07-01T05:16:25;18.20;99.90
22629;DHT22;11481;53.694;9.910;2022-07-01T05:18:52;18.20;99.90
22629;DHT22;11481;53.694;9.910;2022-07-01T05:21:37;18.10;99.90
22629;DHT22;11481;53.694;9.910;2022-07-01T05:24:23;17.60;99.90
22629;DHT22;11481;53.694;9.910;2022-07-01T05:26:50;17.50;99.90
22629;DHT22;11481;53.694;9.910;2022-07-01T05:29:17;17.50;99.90
22629;DHT22;11481;53.694;9.910;2022-07-01T05:31:44;17.50;99.90
22629;DHT22;11481;53.694;9.910;2022-07-01T05:34:11;17.40;99.90
22629;DHT22;11481;53.694;9.910;2022-07-01T05:36:38;17.50;99.90
22629;DHT22;11481;53.694;9.910;2022-07-01T05:39:04;17.60;99.90
22629;DHT22;11481;53.694;9.910;2022-07-01T05:41:31;17.60;99.90
22629;DHT22;11481;53.694;9.910;2022-07-01T05:43:58;17.60;99.90
22629;DHT22;11481;53.694;9.910;2022-07-01T05:46:25;17.70;99.90
22629;DHT22;11481;53.694;9.910;2022-07-01T05:48:52;17.60;99.90
22629;DHT22;11481;53.694;9.910;2022-07-01T05:51:18;17.40;99.90
22629;DHT22;11481;53.694;9.910;2022-07-01T05:53:45;17.50;99.90
22629;DHT22;11481;53.694;9.910;2022-07-01T05:56:14;17.30;99.90
22629;DHT22;11481;53.694;9.910;2022-07-01T05:58:41;17.40;99.90
22629;DHT22;11481;53.694;9.910;2022-07-01T06:01:08;17.30;99.90
22629;DHT22;11481;53.694;9.910;2022-07-01T06:03:35;17.30;99.90
22629;DHT22;11481;53.694;9.910;2022-07-01T06:06:03;17.30;99.90
22629;DHT22;11481;53.694;9.910;2022-07-01T06:08:29;17.40;99.90
22629;DHT22;11481;53.694;9.910;2022-07-01T06:10:56;17.40;99.90
22629;DHT22;11481;53.694;9.910;2022-07-01T06:13:23;17.40;99.90
22629;DHT22;11481;53.694;9.910;2022-07-01T06:15:51;17.30;99.90
22629;DHT22;11481;53.694;9.910;2022-07-01T06:18:18;17.20;99.90
22629;DHT22;11481;53.694;9.910;2022-07-01T06:20:45;17.10;99.90
22629;DHT22;11481;53.694;9.910;2022-07-01T06:23:11;17.10;99.90
22629;DHT22;11481;53.694;9.910;2022-07-01T06:25:38;17.20;99.90
22629;DHT22;11481;53.694;9.910;2022-07-01T06:28:04;17.20;99.90
22629;DHT22;11481;53.694;9.910;2022-07-01T06:30:31;17.30;99.90
22629;DHT22;11481;53.694;9.910;2022-07-01T06:32:58;17.00;99.90
22629;DHT22;11481;53.694;9.910;2022-07-01T06:35:25;17.00;99.90
22629;DHT22;11481;53.694;9.910;2022-07-01T06:37:51;17.10;99.90
22629;DHT22;11481;53.694;9.910;2022-07-01T06:40:24;17.10;99.90
22629;DHT22;11481;53.694;9.910;2022-07-01T06:42:50;17.00;99.90
22629;DHT22;11481;53.694;9.910;2022-07-01T06:45:17;17.00;99.90
22629;DHT22;11481;53.694;9.910;2022-07-01T06:47:44;17.10;99.90
22629;DHT22;11481;53.694;9.910;2022-07-01T06:50:11;16.90;99.90
22629;DHT22;11481;53.694;9.910;2022-07-01T06:52:37;16.90;99.90
22629;DHT22;11481;53.694;9.910;2022-07-01T06:55:04;17.00;99.90
22629;DHT22;11481;53.694;9.910;2022-07-01T06:57:31;16.90;99.90
22629;DHT22;11481;53.694;9.910;2022-07-01T06:59:58;17.00;99.90
22629;DHT22;11481;53.694;9.910;2022-07-01T07:02:24;17.00;99.90
22629;DHT22;11481;53.694;9.910;2022-07-01T07:04:55;17.00;99.90
22629;DHT22;11481;53.694;9.910;2022-07-01T07:07:27;17.00;99.90
22629;DHT22;11481;53.694;9.910;2022-07-01T07:09:54;17.00;99.90
22629;DHT22;11481;53.694;9.910;2022-07-01T07:12:22;17.10;99.90
22629;DHT22;11481;53.694;9.910;2022-07-01T07:14:50;17.10;99.90
22629;DHT22;11481;53.694;9.910;2022-07-01T07:17:17;17.10;99.90
22629;DHT22;11481;53.694;9.910;2022-07-01T07:19:43;17.20;99.90
22629;DHT22;11481;53.694;9.910;2022-07-01T07:22:10;17.20;99.90
22629;DHT22;11481;53.694;9.910;2022-07-01T07:24:37;17.20;99.90
22629;DHT22;11481;53.694;9.910;2022-07-01T07:27:04;17.10;99.90
22629;DHT22;11481;53.694;9.910;2022-07-01T07:29:31;17.10;99.90
22629;DHT22;11481;53.694;9.910;2022-07-01T07:31:58;17.10;99.90
22629;DHT22;11481;53.694;9.910;2022-07-01T07:34:25;17.10;99.90
22629;DHT22;11481;53.694;9.910;2022-07-01T07:36:51;17.20;99.90
22629;DHT22;11481;53.694;9.910;2022-07-01T07:39:18;17.30;99.90
22629;DHT22;11481;53.694;9.910;2022-07-01T07:41:49;17.30;99.90
22629;DHT22;11481;53.694;9.910;2022-07-01T07:44:16;17.20;99.90
22629;DHT22;11481;53.694;9.910;2022-07-01T07:46:42;17.20;99.90
22629;DHT22;11481;53.694;9.910;2022-07-01T07:49:09;17.10;99.90
22629;DHT22;11481;53.694;9.910;2022-07-01T07:51:36;16.90;99.90
22629;DHT22;11481;53.694;9.910;2022-07-01T07:54:03;16.90;99.90
22629;DHT22;11481;53.694;9.910;2022-07-01T07:56:30;16.90;99.90
22629;DHT22;11481;53.694;9.910;2022-07-01T07:58:57;16.80;99.90
22629;DHT22;11481;53.694;9.910;2022-07-01T08:01:25;16.70;99.90
22629;DHT22;11481;53.694;9.910;2022-07-01T08:03:52;16.70;99.90
22629;DHT22;11481;53.694;9.910;2022-07-01T08:06:19;16.60;99.90
22629;DHT22;11481;53.694;9.910;2022-07-01T08:08:46;16.50;99.90
22629;DHT22;11481;53.694;9.910;2022-07-01T08:11:13;16.50;99.90
22629;DHT22;11481;53.694;9.910;2022-07-01T08:13:39;16.50;99.90
22629;DHT22;11481;53.694;9.910;2022-07-01T08:16:08;16.50;99.90
22629;DHT22;11481;53.694;9.910;2022-07-01T08:18:36;16.40;99.90
22629;DHT22;11481;53.694;9.910;2022-07-01T08:21:03;16.60;99.90
22629;DHT22;11481;53.694;9.910;2022-07-01T08:23:30;16.70;99.90
22629;DHT22;11481;53.694;9.910;2022-07-01T08:25:56;16.60;99.90
22629;DHT22;11481;53.694;9.910;2022-07-01T08:28:23;16.70;99.90
22629;DHT22;11481;53.694;9.910;2022-07-01T08:30:50;16.70;99.90
22629;DHT22;11481;53.694;9.910;2022-07-01T08:33:16;16.60;99.90
22629;DHT22;11481;53.694;9.910;2022-07-01T08:35:43;16.60;99.90
22629;DHT22;11481;53.694;9.910;2022-07-01T08:38:10;16.60;99.90
22629;DHT22;11481;53.694;9.910;2022-07-01T08:40:37;16.60;99.90
22629;DHT22;11481;53.694;9.910;2022-07-01T08:43:06;16.60;99.90
22629;DHT22;11481;53.694;9.910;2022-07-01T08:45:35;16.60;99.90
22629;DHT22;11481;53.694;9.910;2022-07-01T08:48:06;16.40;99.90
22629;DHT22;11481;53.694;9.910;2022-07-01T08:50:37;16.40;99.90
22629;DHT22;11481;53.694;9.910;2022-07-01T08:53:05;16.40;99.90
22629;DHT22;11481;53.694;9.910;2022-07-01T08:55:33;16.60;99.90
22629;DHT22;11481;53.694;9.910;2022-07-01T08:58:21;16.60;99.90
22629;DHT22;11481;53.694;9.910;2022-07-01T09:00:47;16.70;99.90
22629;DHT22;11481;53.694;9.910;2022-07-01T09:03:14;16.70;99.90
22629;DHT22;11481;53.694;9.910;2022-07-01T09:05:49;16.70;99.90
22629;DHT22;11481;53.694;9.910;2022-07-01T09:08:15;16.80;99.90
22629;DHT22;11481;53.694;9.910;2022-07-01T09:10:42;16.70;99.90
22629;DHT22;11481;53.694;9.910;2022-07-01T09:13:12;16.70;99.90
22629;DHT22;11481;53.694;9.910;2022-07-01T09:15:40;16.70;99.90
22629;DHT22;11481;53.694;9.910;2022-07-01T09:18:15;16.90;99.90
22629;DHT22;11481;53.694;9.910;2022-07-01T09:20:44;16.70;99.90
22629;DHT22;11481;53.694;9.910;2022-07-01T09:23:14;16.70;99.90
22629;DHT22;11481;53.694;9.910;2022-07-01T09:26:05;16.70;99.90
22629;DHT22;11481;53.694;9.910;2022-07-01T09:28:31;16.60;99.90
22629;DHT22;11481;53.694;9.910;2022-07-01T09:30:58;16.70;99.90
22629;DHT22;11481;53.694;9.910;2022-07-01T09:33:27;16.70;99.90
22629;DHT22;11481;53.694;9.910;2022-07-01T09:35:56;16.70;99.90
22629;DHT22;11481;53.694;9.910;2022-07-01T09:38:24;16.70;99.90
22629;DHT22;11481;53.694;9.910;2022-07-01T09:41:02;16.70;99.90
22629;DHT22;11481;53.694;9.910;2022-07-01T09:43:34;16.60;99.90
22629;DHT22;11481;53.694;9.910;2022-07-01T09:51:04;16.80;99.90
22629;DHT22;11481;53.694;9.910;2022-07-01T09:53:37;16.80;99.90
22629;DHT22;11481;53.694;9.910;2022-07-01T09:56:04;16.90;99.90
22629;DHT22;11481;53.694;9.910;2022-07-01T09:58:30;16.70;99.90
22629;DHT22;11481;53.694;9.910;2022-07-01T10:01:03;16.80;99.90
22629;DHT22;11481;53.694;9.910;2022-07-01T10:03:31;16.80;99.90
22629;DHT22;11481;53.694;9.910;2022-07-01T10:09:26;16.90;99.90
22629;DHT22;11481;53.694;9.910;2022-07-01T10:14:38;16.80;99.90
22629;DHT22;11481;53.694;9.910;2022-07-01T10:17:07;16.80;99.90
22629;DHT22;11481;53.694;9.910;2022-07-01T10:19:33;16.60;99.90
22629;DHT22;11481;53.694;9.910;2022-07-01T10:22:24;16.60;99.90
22629;DHT22;11481;53.694;9.910;2022-07-01T10:24:51;16.70;99.90
22629;DHT22;11481;53.694;9.910;2022-07-01T10:27:23;16.80;99.90
22629;DHT22;11481;53.694;9.910;2022-07-01T10:30:14;16.80;99.90
22629;DHT22;11481;53.694;9.910;2022-07-01T10:32:48;16.80;99.90
22629;DHT22;11481;53.694;9.910;2022-07-01T10:35:36;16.80;99.90
22629;DHT22;11481;53.694;9.910;2022-07-01T10:38:03;16.80;99.90
22629;DHT22;11481;53.694;9.910;2022-07-01T10:40:44;16.70;99.90
22629;DHT22;11481;53.694;9.910;2022-07-01T10:43:32;16.60;99.90
22629;DHT22;11481;53.694;9.910;2022-07-01T10:45:59;16.80;99.90
22629;DHT22;11481;53.694;9.910;2022-07-01T10:48:28;16.80;99.90
22629;DHT22;11481;53.694;9.910;2022-07-01T10:50:57;16.80;99.90
22629;DHT22;11481;53.694;9.910;2022-07-01T10:53:23;16.80;99.90
22629;DHT22;11481;53.694;9.910;2022-07-01T10:55:51;16.70;99.90
22629;DHT22;11481;53.694;9.910;2022-07-01T10:58:37;16.70;99.90
22629;DHT22;11481;53.694;9.910;2022-07-01T11:01:04;16.80;99.90
22629;DHT22;11481;53.694;9.910;2022-07-01T11:03:35;16.70;99.90
22629;DHT22;11481;53.694;9.910;2022-07-01T11:06:03;16.80;99.90
22629;DHT22;11481;53.694;9.910;2022-07-01T11:08:30;16.70;99.90
22629;DHT22;11481;53.694;9.910;2022-07-01T11:10:59;16.70;99.90
22629;DHT22;11481;53.694;9.910;2022-07-01T11:13:28;16.90;99.90
22629;DHT22;11481;53.694;9.910;2022-07-01T11:15:55;17.00;99.90
22629;DHT22;11481;53.694;9.910;2022-07-01T11:18:22;17.00;99.90
22629;DHT22;11481;53.694;9.910;2022-07-01T11:20:49;17.10;99.90
22629;DHT22;11481;53.694;9.910;2022-07-01T11:23:16;17.10;99.90
22629;DHT22;11481;53.694;9.910;2022-07-01T11:25:43;17.10;99.90
22629;DHT22;11481;53.694;9.910;2022-07-01T11:28:11;17.00;99.90
22629;DHT22;11481;53.694;9.910;2022-07-01T11:30:38;16.90;99.90
22629;DHT22;11481;53.694;9.910;2022-07-01T11:33:05;17.00;99.90
22629;DHT22;11481;53.694;9.910;2022-07-01T11:35:34;17.00;99.90
22629;DHT22;11481;53.694;9.910;2022-07-01T11:38:22;16.90;99.90
22629;DHT22;11481;53.694;9.910;2022-07-01T11:41:18;17.00;99.90
22629;DHT22;11481;53.694;9.910;2022-07-01T11:43:45;17.10;99.90
22629;DHT22;11481;53.694;9.910;2022-07-01T11:46:12;17.00;99.90
22629;DHT22;11481;53.694;9.910;2022-07-01T11:48:44;17.00;99.90
22629;DHT22;11481;53.694;9.910;2022-07-01T11:51:13;17.10;99.90
22629;DHT22;11481;53.694;9.910;2022-07-01T11:53:49;17.20;99.90
22629;DHT22;11481;53.694;9.910;2022-07-01T11:56:17;17.20;99.90
22629;DHT22;11481;53.694;9.910;2022-07-01T11:58:53;17.20;99.90
22629;DHT22;11481;53.694;9.910;2022-07-01T12:01:25;17.20;99.90
22629;DHT22;11481;53.694;9.910;2022-07-01T12:03:54;17.30;99.90
22629;DHT22;11481;53.694;9.910;2022-07-01T12:06:22;17.40;99.90
22629;DHT22;11481;53.694;9.910;2022-07-01T12:08:51;17.40;99.90
22629;DHT22;11481;53.694;9.910;2022-07-01T12:11:18;17.40;99.90
22629;DHT22;11481;53.694;9.910;2022-07-01T12:13:46;17.40;99.90
22629;DHT22;11481;53.694;9.910;2022-07-01T12:16:15;17.50;99.90
22629;DHT22;11481;53.694;9.910;2022-07-01T12:18:58;17.40;99.90
22629;DHT22;11481;53.694;9.910;2022-07-01T12:21:27;17.40;99.90
22629;DHT22;11481;53.694;9.910;2022-07-01T12:24:11;17.30;99.90
22629;DHT22;11481;53.694;9.910;2022-07-01T12:27:05;17.40;99.90
22629;DHT22;11481;53.694;9.910;2022-07-01T12:32:27;17.20;99.90
22629;DHT22;11481;53.694;9.910;2022-07-01T12:35:00;17.30;99.90
22629;DHT22;11481;53.694;9.910;2022-07-01T12:37:32;17.30;99.90
22629;DHT22;11481;53.694;9.910;2022-07-01T12:40:01;17.40;99.90
22629;DHT22;11481;53.694;9.910;2022-07-01T12:42:33;17.60;99.90
22629;DHT22;11481;53.694;9.910;2022-07-01T12:45:06;17.70;99.90
22629;DHT22;11481;53.694;9.910;2022-07-01T12:47:35;17.70;99.90
22629;DHT22;11481;53.694;9.910;2022-07-01T12:50:16;17.70;99.90
22629;DHT22;11481;53.694;9.910;2022-07-01T12:52:56;17.80;99.90
22629;DHT22;11481;53.694;9.910;2022-07-01T12:55:24;17.80;99.90
22629;DHT22;11481;53.694;9.910;2022-07-01T12:57:53;17.90;99.90
22629;DHT22;11481;53.694;9.910;2022-07-01T13:00:23;17.90;99.90
22629;DHT22;11481;53.694;9.910;2022-07-01T13:02:55;17.90;99.90
22629;DHT22;11481;53.694;9.910;2022-07-01T13:05:23;18.10;99.90
22629;DHT22;11481;53.694;9.910;2022-07-01T13:07:50;18.10;99.90
22629;DHT22;11481;53.694;9.910;2022-07-01T13:10:18;18.30;99.90
22629;DHT22;11481;53.694;9.910;2022-07-01T13:12:46;18.30;99.90
22629;DHT22;11481;53.694;9.910;2022-07-01T13:15:14;18.20;99.90
22629;DHT22;11481;53.694;9.910;2022-07-01T13:17:41;18.20;99.90
22629;DHT22;11481;53.694;9.910;2022-07-01T13:20:09;18.20;99.90
22629;DHT22;11481;53.694;9.910;2022-07-01T13:22:36;18.20;99.90
22629;DHT22;11481;53.694;9.910;2022-07-01T13:25:04;18.30;99.90
22629;DHT22;11481;53.694;9.910;2022-07-01T13:27:30;18.30;99.90
22629;DHT22;11481;53.694;9.910;2022-07-01T13:29:57;18.50;99.90
22629;DHT22;11481;53.694;9.910;2022-07-01T13:32:25;18.60;99.90
22629;DHT22;11481;53.694;9.910;2022-07-01T13:35:15;18.60;99.90
22629;DHT22;11481;53.694;9.910;2022-07-01T13:37:42;18.60;99.90
22629;DHT22;11481;53.694;9.910;2022-07-01T13:40:09;18.70;99.90
22629;DHT22;11481;53.694;9.910;2022-07-01T13:42:37;18.80;99.90
22629;DHT22;11481;53.694;9.910;2022-07-01T13:45:04;19.10;99.90
22629;DHT22;11481;53.694;9.910;2022-07-01T13:47:31;19.20;99.90
22629;DHT22;11481;53.694;9.910;2022-07-01T13:49:58;19.00;99.90
22629;DHT22;11481;53.694;9.910;2022-07-01T13:52:25;18.90;99.90
22629;DHT22;11481;53.694;9.910;2022-07-01T13:54:55;19.00;99.90
22629;DHT22;11481;53.694;9.910;2022-07-01T13:57:22;19.00;99.90
22629;DHT22;11481;53.694;9.910;2022-07-01T13:59:49;19.20;99.90
22629;DHT22;11481;53.694;9.910;2022-07-01T14:02:16;19.30;99.90
22629;DHT22;11481;53.694;9.910;2022-07-01T14:04:46;19.50;99.90
22629;DHT22;11481;53.694;9.910;2022-07-01T14:07:13;19.40;99.90
22629;DHT22;11481;53.694;9.910;2022-07-01T14:09:40;19.60;99.90
22629;DHT22;11481;53.694;9.910;2022-07-01T14:12:08;20.00;99.90
22629;DHT22;11481;53.694;9.910;2022-07-01T14:14:42;20.00;99.90
22629;DHT22;11481;53.694;9.910;2022-07-01T14:17:09;20.00;99.90
22629;DHT22;11481;53.694;9.910;2022-07-01T14:19:36;20.10;99.90
22629;DHT22;11481;53.694;9.910;2022-07-01T14:22:03;20.30;99.90
22629;DHT22;11481;53.694;9.910;2022-07-01T14:24:30;20.20;99.90
22629;DHT22;11481;53.694;9.910;2022-07-01T14:26:57;20.00;99.90
22629;DHT22;11481;53.694;9.910;2022-07-01T14:29:24;19.90;99.90
22629;DHT22;11481;53.694;9.910;2022-07-01T14:31:50;20.00;99.90
22629;DHT22;11481;53.694;9.910;2022-07-01T14:34:17;20.00;99.90
22629;DHT22;11481;53.694;9.910;2022-07-01T14:36:44;19.90;99.90
22629;DHT22;11481;53.694;9.910;2022-07-01T14:39:11;19.80;99.90
22629;DHT22;11481;53.694;9.910;2022-07-01T14:41:37;19.90;99.90
22629;DHT22;11481;53.694;9.910;2022-07-01T14:44:04;19.90;99.90
22629;DHT22;11481;53.694;9.910;2022-07-01T14:46:31;20.00;99.90
22629;DHT22;11481;53.694;9.910;2022-07-01T14:48:57;20.20;99.90
22629;DHT22;11481;53.694;9.910;2022-07-01T14:51:24;20.30;99.90
22629;DHT22;11481;53.694;9.910;2022-07-01T14:53:51;20.40;99.90
22629;DHT22;11481;53.694;9.910;2022-07-01T14:56:22;20.60;99.90
22629;DHT22;11481;53.694;9.910;2022-07-01T14:58:49;20.60;99.90
22629;DHT22;11481;53.694;9.910;2022-07-01T15:01:16;20.50;99.90
22629;DHT22;11481;53.694;9.910;2022-07-01T15:03:43;20.50;99.90
22629;DHT22;11481;53.694;9.910;2022-07-01T15:06:10;20.30;99.90
22629;DHT22;11481;53.694;9.910;2022-07-01T15:08:36;20.10;99.90
22629;DHT22;11481;53.694;9.910;2022-07-01T15:11:04;19.90;99.90
22629;DHT22;11481;53.694;9.910;2022-07-01T15:13:31;19.80;99.90
22629;DHT22;11481;53.694;9.910;2022-07-01T15:15:59;19.70;99.90
22629;DHT22;11481;53.694;9.910;2022-07-01T15:18:26;19.80;99.90
22629;DHT22;11481;53.694;9.910;2022-07-01T15:20:53;19.90;99.90
22629;DHT22;11481;53.694;9.910;2022-07-01T15:23:19;19.80;99.90
22629;DHT22;11481;53.694;9.910;2022-07-01T15:25:46;19.90;99.90
22629;DHT22;11481;53.694;9.910;2022-07-01T15:28:13;19.80;99.90
22629;DHT22;11481;53.694;9.910;2022-07-01T15:30:40;19.80;99.90
22629;DHT22;11481;53.694;9.910;2022-07-01T15:33:06;19.80;99.90
22629;DHT22;11481;53.694;9.910;2022-07-01T15:35:33;19.90;99.90
22629;DHT22;11481;53.694;9.910;2022-07-01T15:38:00;19.90;99.90
22629;DHT22;11481;53.694;9.910;2022-07-01T15:40:26;19.80;99.90
22629;DHT22;11481;53.694;9.910;2022-07-01T15:42:53;19.70;99.90
22629;DHT22;11481;53.694;9.910;2022-07-01T15:45:20;19.80;99.90
22629;DHT22;11481;53.694;9.910;2022-07-01T15:47:46;19.80;99.90
22629;DHT22;11481;53.694;9.910;2022-07-01T15:50:40;19.90;99.90
22629;DHT22;11481;53.694;9.910;2022-07-01T15:53:08;19.90;99.90
22629;DHT22;11481;53.694;9.910;2022-07-01T15:55:35;19.90;99.90
22629;DHT22;11481;53.694;9.910;2022-07-01T15:58:07;19.90;99.90